createdAt,value
2023-02-11T00:00:07.825Z,103054.09
2023-02-11T00:01:22.245Z,103052.38
2023-02-11T00:02:40.143Z,103055.91
2023-02-11T00:04:03.983Z,103059.47
2023-02-11T00:05:26.542Z,103049.84
2023-02-11T00:06:50.391Z,103048.97
2023-02-11T00:08:16.839Z,103050.72
2023-02-11T00:09:39.333Z,103056.00
2023-02-11T00:11:02.132Z,103056.88
2023-02-11T00:12:24.927Z,103057.75
2023-02-11T00:13:47.959Z,103057.75
2023-02-11T00:15:11.269Z,103054.19
2023-02-11T00:16:32.882Z,103058.53
2023-02-11T00:17:55.450Z,103043.53
2023-02-11T00:19:07.134Z,103050.53
2023-02-11T00:20:24.808Z,103044.28
2023-02-11T00:21:47.320Z,103044.19
2023-02-11T00:23:00.226Z,103041.56
2023-02-11T00:24:08.199Z,103041.53
2023-02-11T00:25:09.765Z,103037.13
2023-02-11T00:26:14.111Z,103035.34
2023-02-11T00:27:15.812Z,103038.81
2023-02-11T00:28:18.298Z,103034.41
2023-02-11T00:29:19.889Z,103032.59
2023-02-11T00:30:32.452Z,103027.31
2023-02-11T00:31:44.256Z,103023.84
2023-02-11T00:32:56.827Z,103024.78
2023-02-11T00:33:58.690Z,103015.97
2023-02-11T00:35:01.948Z,103022.16
2023-02-11T00:36:04.567Z,103019.59
2023-02-11T00:37:07.174Z,103009.94
2023-02-11T00:38:10.030Z,103009.09
2023-02-11T00:39:12.557Z,103010.03
2023-02-11T00:40:15.932Z,103010.94
2023-02-11T00:41:19.535Z,103014.44
2023-02-11T00:42:21.134Z,103014.47
2023-02-11T00:43:23.669Z,103017.13
2023-02-11T00:44:25.307Z,103020.69
2023-02-11T00:45:28.720Z,103021.59
2023-02-11T00:46:31.590Z,103027.78
2023-02-11T00:47:41.904Z,103024.22
2023-02-11T00:48:44.122Z,103023.38
2023-02-11T00:49:56.574Z,103026.88
2023-02-11T00:51:08.868Z,103026.06
2023-02-11T00:52:11.394Z,103026.91
2023-02-11T00:53:14.268Z,103033.13
2023-02-11T00:54:16.739Z,103029.59
2023-02-11T00:55:18.464Z,103025.22
2023-02-11T00:56:21.411Z,103026.16
2023-02-11T00:57:23.191Z,103031.44
2023-02-11T00:58:25.977Z,103034.13
2023-02-11T00:59:27.603Z,103029.69
2023-02-11T01:00:30.303Z,103034.97
2023-02-11T01:01:34.570Z,103034.13
2023-02-11T01:02:38.480Z,103027.06
2023-02-11T01:03:41.096Z,103026.22
2023-02-11T01:04:46.729Z,103026.22
2023-02-11T01:05:54.586Z,103019.25
2023-02-11T01:06:57.699Z,103025.41
2023-02-11T01:07:59.234Z,103020.13
2023-02-11T01:09:03.642Z,103017.50
2023-02-11T01:10:05.702Z,103018.41
2023-02-11T01:11:13.393Z,103009.56
2023-02-11T01:12:15.897Z,103016.69
2023-02-11T01:13:17.645Z,103008.78
2023-02-11T01:14:21.452Z,103014.06
2023-02-11T01:15:27.017Z,103015.81
2023-02-11T01:16:30.197Z,103016.72
2023-02-11T01:17:38.096Z,103021.13
2023-02-11T01:18:44.528Z,103029.06
2023-02-11T01:19:46.897Z,103019.44
2023-02-11T01:20:49.363Z,103023.84
2023-02-11T01:21:51.865Z,103022.97
2023-02-11T01:22:53.687Z,103028.25
2023-02-11T01:23:56.228Z,103022.97
2023-02-11T01:24:59.134Z,103022.97
2023-02-11T01:26:01.672Z,103018.59
2023-02-11T01:27:03.307Z,103017.69
2023-02-11T01:28:06.595Z,103021.19
2023-02-11T01:29:09.245Z,103016.78
2023-02-11T01:30:14.905Z,103023.78
2023-02-11T01:31:16.600Z,103024.63
2023-02-11T01:32:21.417Z,103021.97
2023-02-11T01:33:23.623Z,103028.06
2023-02-11T01:34:26.107Z,103035.09
2023-02-11T01:35:27.632Z,103028.88
2023-02-11T01:36:30.105Z,103027.06
2023-02-11T01:37:32.918Z,103027.88
2023-02-11T01:38:35.927Z,103026.97
2023-02-11T01:39:37.518Z,103026.97
2023-02-11T01:40:48.198Z,103026.88
2023-02-11T01:41:58.317Z,103026.88
2023-02-11T01:42:59.882Z,103025.09
2023-02-11T01:44:24.028Z,103030.31
2023-02-11T01:45:59.772Z,103037.31
2023-02-11T01:47:04.654Z,103041.72
2023-02-11T01:48:06.449Z,103036.44
2023-02-11T01:49:16.147Z,103046.94
2023-02-11T01:50:18.692Z,103044.28
2023-02-11T01:51:35.566Z,103046.00
2023-02-11T01:52:42.498Z,103046.91
2023-02-11T01:54:06.270Z,103040.72
2023-02-11T01:55:32.243Z,103045.94
2023-02-11T01:56:58.142Z,103044.16
2023-02-11T01:58:04.841Z,103040.66
2023-02-11T01:59:13.172Z,103030.97
2023-02-11T02:00:21.483Z,103026.56
2023-02-11T02:01:27.502Z,103031.84
2023-02-11T02:02:36.939Z,103023.84
2023-02-11T02:03:43.548Z,103024.72
2023-02-11T02:04:54.630Z,103014.16
2023-02-11T02:06:11.818Z,103015.88
2023-02-11T02:10:46.974Z,103013.28
2023-02-11T02:11:50.753Z,103013.28
2023-02-11T02:12:53.464Z,103011.56
2023-02-11T02:13:55.142Z,103007.13
2023-02-11T02:15:22.102Z,103000.94
2023-02-11T02:16:30.689Z,102995.63
2023-02-11T02:17:41.626Z,103003.47
2023-02-11T02:18:53.497Z,103006.09
2023-02-11T02:20:24.542Z,103006.09
2023-02-11T02:21:50.712Z,103008.72
2023-02-11T02:23:20.870Z,103002.56
2023-02-11T02:24:40.450Z,103006.97
2023-02-11T02:26:14.970Z,103011.38
2023-02-11T02:27:47.897Z,103009.63
2023-02-11T02:29:17.081Z,103016.66
2023-02-11T02:33:27.202Z,103001.78
2023-02-11T02:34:36.509Z,102999.16
2023-02-11T02:35:43.530Z,103000.94
2023-02-11T02:36:52.140Z,102999.16
2023-02-11T02:38:02.009Z,102996.53
2023-02-11T02:39:08.260Z,102992.13
2023-02-11T02:40:16.632Z,102990.34
2023-02-11T02:41:22.165Z,102991.22
2023-02-11T02:42:24.988Z,102985.94
2023-02-11T02:43:29.783Z,102997.34
2023-02-11T02:44:31.922Z,102990.28
2023-02-11T02:45:34.488Z,102992.88
2023-02-11T02:46:36.635Z,102986.69
2023-02-11T02:47:39.150Z,102991.06
2023-02-11T02:48:40.919Z,102993.72
2023-02-11T02:49:44.791Z,102994.59
2023-02-11T02:50:46.842Z,102998.09
2023-02-11T02:52:09.526Z,102995.47
2023-02-11T02:53:25.294Z,102987.53
2023-02-11T02:54:52.809Z,102988.44
2023-02-11T02:56:02.355Z,102989.31
2023-02-11T02:57:15.760Z,102990.19
2023-02-11T02:58:47.085Z,102987.53
2023-02-11T03:00:02.941Z,102993.72
2023-02-11T03:01:13.777Z,102989.31
2023-02-11T03:02:23.259Z,102994.59
2023-02-11T03:03:36.230Z,102985.78
2023-02-11T03:04:49.018Z,102996.34
2023-02-11T03:05:58.061Z,102995.50
2023-02-11T03:07:06.069Z,103005.19
2023-02-11T03:08:13.020Z,103004.28
2023-02-11T03:09:19.050Z,103010.41
2023-02-11T03:10:26.607Z,103001.59
2023-02-11T03:11:30.226Z,103000.75
2023-02-11T03:12:36.743Z,103000.75
2023-02-11T03:13:41.029Z,102999.84
2023-02-11T03:14:45.800Z,102997.19
2023-02-11T03:15:51.141Z,102987.47
2023-02-11T03:16:56.022Z,102986.63
2023-02-11T03:18:00.326Z,102985.75
2023-02-11T03:19:07.048Z,102984.88
2023-02-11T03:20:13.727Z,102983.06
2023-02-11T03:21:18.429Z,102975.13
2023-02-11T03:22:25.006Z,102975.13
2023-02-11T03:23:30.390Z,102968.13
2023-02-11T03:24:36.862Z,102962.84
2023-02-11T03:25:45.051Z,102953.19
2023-02-11T03:26:51.503Z,102962.03
2023-02-11T03:28:04.451Z,102950.59
2023-02-11T03:29:14.263Z,102955.88
2023-02-11T03:30:21.863Z,102947.97
2023-02-11T03:31:30.915Z,102955.00
2023-02-11T03:32:38.724Z,102955.00
2023-02-11T03:33:46.854Z,102954.13
2023-02-11T03:35:04.694Z,102960.28
2023-02-11T03:36:24.043Z,102960.31
2023-02-11T03:37:31.747Z,102955.94
2023-02-11T03:38:37.457Z,102955.06
2023-02-11T03:39:44.692Z,102957.72
2023-02-11T03:40:47.542Z,102961.22
2023-02-11T03:41:52.775Z,102963.00
2023-02-11T03:42:58.467Z,102959.50
2023-02-11T03:44:02.378Z,102955.06
2023-02-11T03:45:08.569Z,102965.63
2023-02-11T03:46:13.394Z,102956.91
2023-02-11T03:47:18.890Z,102964.81
2023-02-11T03:48:26.192Z,102972.75
2023-02-11T03:49:29.558Z,102971.88
2023-02-11T03:50:35.688Z,102971.00
2023-02-11T03:51:40.934Z,102973.72
2023-02-11T03:52:47.868Z,102966.69
2023-02-11T03:53:52.849Z,102966.69
2023-02-11T03:54:58.401Z,102976.38
2023-02-11T03:56:03.911Z,102968.44
2023-02-11T03:57:06.479Z,102967.56
2023-02-11T03:58:08.598Z,102974.59
2023-02-11T03:59:11.110Z,102968.44
2023-02-11T04:00:13.842Z,102969.31
2023-02-11T04:01:18.265Z,102964.88
2023-02-11T04:02:20.801Z,102967.47
2023-02-11T04:03:23.350Z,102967.47
2023-02-11T04:04:25.684Z,102962.16
2023-02-11T04:05:31.203Z,102961.22
2023-02-11T04:06:32.738Z,102963.81
2023-02-11T04:07:36.579Z,102963.81
2023-02-11T04:08:38.161Z,102967.38
2023-02-11T04:09:40.663Z,102958.53
2023-02-11T04:10:42.200Z,102951.50
2023-02-11T04:11:44.709Z,102952.34
2023-02-11T04:12:46.621Z,102949.72
2023-02-11T04:13:49.092Z,102947.06
2023-02-11T04:14:50.660Z,102944.44
2023-02-11T04:15:53.474Z,102950.63
2023-02-11T04:16:55.675Z,102947.97
2023-02-11T04:18:04.586Z,102946.25
2023-02-11T04:19:07.124Z,102951.53
2023-02-11T04:20:12.288Z,102960.34
2023-02-11T04:21:23.892Z,102963.00
2023-02-11T04:22:26.551Z,102948.06
2023-02-11T04:23:29.433Z,102946.31
2023-02-11T04:24:32.138Z,102943.66
2023-02-11T04:25:33.651Z,102941.88
2023-02-11T04:26:36.152Z,102945.38
2023-02-11T04:27:38.200Z,102934.88
2023-02-11T04:28:40.703Z,102944.50
2023-02-11T04:29:42.330Z,102948.94
2023-02-11T04:30:44.811Z,102945.44
2023-02-11T04:31:46.580Z,102956.00
2023-02-11T04:32:49.086Z,102958.66
2023-02-11T04:33:50.632Z,102944.50
2023-02-11T04:34:54.829Z,102943.66
2023-02-11T04:35:56.793Z,102946.25
2023-02-11T04:37:01.499Z,102946.31
2023-02-11T04:38:03.203Z,102945.38
2023-02-11T04:39:07.453Z,102958.53
2023-02-11T04:40:10.054Z,102958.53
2023-02-11T04:41:12.532Z,102961.19
2023-02-11T04:42:14.128Z,102955.88
2023-02-11T04:43:16.664Z,102956.75
2023-02-11T04:44:18.248Z,102947.91
2023-02-11T04:45:20.724Z,102953.13
2023-02-11T04:46:22.618Z,102954.88
2023-02-11T04:47:25.246Z,102951.31
2023-02-11T04:48:26.884Z,102958.38
2023-02-11T04:49:29.652Z,102950.47
2023-02-11T04:50:36.722Z,102961.91
2023-02-11T04:51:39.215Z,102961.03
2023-02-11T04:52:40.836Z,102958.47
2023-02-11T04:53:43.310Z,102969.91
2023-02-11T04:54:46.184Z,102963.75
2023-02-11T04:55:50.578Z,102967.31
2023-02-11T04:56:52.415Z,102965.56
2023-02-11T04:57:55.220Z,102974.38
2023-02-11T04:58:56.814Z,102971.75
2023-02-11T04:59:59.301Z,102975.28
2023-02-11T05:01:06.065Z,102974.38
2023-02-11T05:02:08.886Z,102964.69
2023-02-11T05:03:12.311Z,102976.13
2023-02-11T05:04:14.884Z,102969.06
2023-02-11T05:05:16.584Z,102963.78
2023-02-11T05:06:19.090Z,102960.28
2023-02-11T05:07:20.604Z,102969.09
2023-02-11T05:08:23.434Z,102965.63
2023-02-11T05:09:24.991Z,102958.66
2023-02-11T05:10:29.893Z,102963.94
2023-02-11T05:11:33.458Z,102962.19
2023-02-11T05:12:37.918Z,102959.53
2023-02-11T05:13:40.352Z,102959.53
2023-02-11T05:14:43.042Z,102962.19
2023-02-11T05:15:44.771Z,102965.72
2023-02-11T05:16:47.324Z,102957.81
2023-02-11T05:17:48.863Z,102960.56
2023-02-11T05:18:52.632Z,102963.16
2023-02-11T05:19:54.284Z,102969.31
2023-02-11T05:20:56.788Z,102962.28
2023-02-11T05:22:03.199Z,102963.16
2023-02-11T05:23:06.182Z,102960.53
2023-02-11T05:24:08.300Z,102958.84
2023-02-11T05:25:10.859Z,102957.09
2023-02-11T05:26:14.428Z,102954.50
2023-02-11T05:27:16.965Z,102950.19
2023-02-11T05:28:18.914Z,102952.91
2023-02-11T05:29:21.414Z,102960.75
2023-02-11T05:30:24.311Z,102944.91
2023-02-11T05:31:27.514Z,102943.16
2023-02-11T05:32:29.085Z,102946.75
2023-02-11T05:33:31.926Z,102944.97
2023-02-11T05:34:33.488Z,102944.97
2023-02-11T05:35:36.169Z,102952.03
2023-02-11T05:36:38.412Z,102953.72
2023-02-11T05:37:40.989Z,102957.31
2023-02-11T05:38:43.312Z,102952.03
2023-02-11T05:39:45.923Z,102960.84
2023-02-11T05:40:47.505Z,102957.41
2023-02-11T05:41:51.388Z,102955.59
2023-02-11T05:42:52.925Z,102960.09
2023-02-11T05:43:55.433Z,102955.66
2023-02-11T05:44:57.007Z,102951.25
2023-02-11T05:46:00.027Z,102942.47
2023-02-11T05:47:03.334Z,102942.41
2023-02-11T05:48:06.447Z,102932.72
2023-02-11T05:49:07.961Z,102934.44
2023-02-11T05:50:10.629Z,102939.75
2023-02-11T05:51:12.212Z,102928.41
2023-02-11T05:52:14.702Z,102930.22
2023-02-11T05:53:16.245Z,102932.91
2023-02-11T05:54:18.959Z,102927.63
2023-02-11T05:55:20.498Z,102932.00
2023-02-11T05:56:23.013Z,102926.72
2023-02-11T05:57:25.924Z,102926.75
2023-02-11T05:58:29.590Z,102930.28
2023-02-11T05:59:41.210Z,102932.91
2023-02-11T06:00:47.040Z,102933.00
2023-02-11T06:01:50.693Z,102932.13
2023-02-11T06:02:53.377Z,102933.00
2023-02-11T06:03:56.029Z,102928.59
2023-02-11T06:04:57.613Z,102931.16
2023-02-11T06:06:00.118Z,102931.16
2023-02-11T06:07:01.707Z,102932.91
2023-02-11T06:08:04.693Z,102939.94
2023-02-11T06:09:06.256Z,102935.44
2023-02-11T06:10:09.538Z,102937.22
2023-02-11T06:11:11.092Z,102942.50
2023-02-11T06:12:13.580Z,102950.38
2023-02-11T06:13:18.541Z,102939.81
2023-02-11T06:14:21.098Z,102950.38
2023-02-11T06:15:22.660Z,102945.97
2023-02-11T06:16:25.661Z,102946.88
2023-02-11T06:17:28.974Z,102940.72
2023-02-11T06:18:33.365Z,102943.38
2023-02-11T06:19:34.993Z,102942.50
2023-02-11T06:20:40.659Z,102940.69
2023-02-11T06:21:44.212Z,102951.19
2023-02-11T06:22:47.205Z,102941.47
2023-02-11T06:23:49.104Z,102941.47
2023-02-11T06:25:01.249Z,102937.88
2023-02-11T06:26:03.868Z,102935.25
2023-02-11T06:27:06.502Z,102937.88
2023-02-11T06:28:08.494Z,102948.44
2023-02-11T06:29:12.855Z,102951.09
2023-02-11T06:30:14.880Z,102946.75
2023-02-11T06:31:18.369Z,102950.28
2023-02-11T06:32:42.283Z,102946.75
2023-02-11T06:33:43.909Z,102943.28
2023-02-11T06:34:45.461Z,102949.41
2023-02-11T06:35:47.946Z,102939.72
2023-02-11T06:36:49.885Z,102948.53
2023-02-11T06:37:53.838Z,102949.31
2023-02-11T06:38:55.449Z,102949.31
2023-02-11T06:39:57.957Z,102944.91
2023-02-11T06:40:59.470Z,102955.47
2023-02-11T06:42:02.506Z,102958.97
2023-02-11T06:43:07.996Z,102959.84
2023-02-11T06:44:21.944Z,102944.91
2023-02-11T06:45:24.435Z,102949.28
2023-02-11T06:46:27.796Z,102951.94
2023-02-11T06:47:29.323Z,102943.94
2023-02-11T06:48:31.855Z,102951.81
2023-02-11T06:49:33.477Z,102952.69
2023-02-11T06:50:36.038Z,102955.28
2023-02-11T06:51:37.564Z,102955.22
2023-02-11T06:52:40.045Z,102955.16
2023-02-11T06:53:45.479Z,102956.91
2023-02-11T06:54:47.006Z,102951.63
2023-02-11T06:55:50.037Z,102956.00
2023-02-11T06:56:51.872Z,102959.50
2023-02-11T06:57:54.631Z,102958.56
2023-02-11T06:58:56.631Z,102962.09
2023-02-11T07:00:00.505Z,102957.72
2023-02-11T07:01:06.560Z,102958.53
2023-02-11T07:02:12.251Z,102956.81
2023-02-11T07:03:13.952Z,102958.53
2023-02-11T07:04:16.845Z,102958.53
2023-02-11T07:05:18.595Z,102955.00
2023-02-11T07:06:24.672Z,102961.16
2023-02-11T07:07:27.423Z,102950.59
2023-02-11T07:08:30.080Z,102954.06
2023-02-11T07:09:33.291Z,102949.69
2023-02-11T07:10:34.950Z,102952.31
2023-02-11T07:11:37.500Z,102957.59
2023-02-11T07:12:39.033Z,102943.50
2023-02-11T07:13:41.962Z,102948.78
2023-02-11T07:14:46.274Z,102952.22
2023-02-11T07:15:51.007Z,102953.09
2023-02-11T07:16:52.742Z,102952.19
2023-02-11T07:17:55.291Z,102951.25
2023-02-11T07:18:56.795Z,102957.41
2023-02-11T07:19:59.345Z,102960.00
2023-02-11T07:21:05.174Z,102959.94
2023-02-11T07:22:07.723Z,102967.94
2023-02-11T07:23:09.403Z,102967.94
2023-02-11T07:24:12.378Z,102961.81
2023-02-11T07:25:13.989Z,102971.50
2023-02-11T07:26:18.811Z,102975.03
2023-02-11T07:27:21.650Z,102968.94
2023-02-11T07:28:26.901Z,102970.69
2023-02-11T07:29:39.463Z,102966.22
2023-02-11T07:30:41.044Z,102963.59
2023-02-11T07:31:45.090Z,102968.94
2023-02-11T07:32:46.739Z,102966.19
2023-02-11T07:33:49.879Z,102975.84
2023-02-11T07:34:51.520Z,102970.56
2023-02-11T07:35:54.167Z,102979.38
2023-02-11T07:36:55.729Z,102972.28
2023-02-11T07:37:58.230Z,102985.50
2023-02-11T07:39:00.142Z,102986.34
2023-02-11T07:40:02.862Z,102985.44
2023-02-11T07:41:06.895Z,102975.75
2023-02-11T07:42:09.544Z,102977.47
2023-02-11T07:43:11.109Z,102985.38
2023-02-11T07:44:13.570Z,102984.47
2023-02-11T07:45:16.240Z,102980.94
2023-02-11T07:46:22.050Z,102987.09
2023-02-11T07:47:25.478Z,102989.72
2023-02-11T07:48:27.988Z,102993.25
2023-02-11T07:49:29.725Z,102993.28
2023-02-11T07:50:32.205Z,102992.38
2023-02-11T07:51:33.816Z,103002.06
2023-02-11T07:52:36.362Z,102996.78
2023-02-11T07:53:38.402Z,103000.31
2023-02-11T07:54:41.124Z,103000.31
2023-02-11T07:55:43.202Z,103001.16
2023-02-11T07:56:45.779Z,103002.94
2023-02-11T07:57:53.330Z,103003.81
2023-02-11T07:58:57.092Z,103004.72
2023-02-11T07:59:58.898Z,103002.06
2023-02-11T08:01:03.550Z,103007.34
2023-02-11T08:02:06.115Z,103002.06
2023-02-11T08:03:09.008Z,103000.34
2023-02-11T08:04:11.548Z,103002.06
2023-02-11T08:05:14.153Z,103000.34
2023-02-11T08:06:18.691Z,102996.78
2023-02-11T08:07:21.531Z,103006.44
2023-02-11T08:08:23.390Z,103009.09
2023-02-11T08:09:25.868Z,103011.66
2023-02-11T08:10:27.408Z,103006.38
2023-02-11T08:11:29.896Z,103006.38
2023-02-11T08:12:31.510Z,103007.25
2023-02-11T08:13:34.011Z,103011.63
2023-02-11T08:14:36.701Z,103010.69
2023-02-11T08:15:38.721Z,103008.06
2023-02-11T08:16:43.909Z,103008.03
2023-02-11T08:17:49.407Z,103001.88
2023-02-11T08:18:55.949Z,102993.91
2023-02-11T08:19:58.866Z,103005.31
2023-02-11T08:21:04.881Z,102994.75
2023-02-11T08:22:07.416Z,102986.78
2023-02-11T08:23:08.953Z,102995.56
2023-02-11T08:24:11.867Z,102998.16
2023-02-11T08:25:13.440Z,102996.38
2023-02-11T08:26:18.471Z,102999.03
2023-02-11T08:27:20.972Z,103003.41
2023-02-11T08:28:22.520Z,103001.63
2023-02-11T08:29:25.083Z,103006.84
2023-02-11T08:30:27.624Z,103006.84
2023-02-11T08:31:33.846Z,103009.44
2023-02-11T08:32:35.659Z,103005.88
2023-02-11T08:33:40.333Z,103009.38
2023-02-11T08:34:44.847Z,103013.69
2023-02-11T08:35:50.911Z,103005.78
2023-02-11T08:36:53.943Z,103011.06
2023-02-11T08:37:55.480Z,103008.38
2023-02-11T08:39:15.977Z,103004.94
2023-02-11T08:40:20.438Z,103013.75
2023-02-11T08:43:47.473Z,103025.25
2023-02-11T08:44:49.023Z,103024.44
2023-02-11T08:45:51.900Z,103024.44
2023-02-11T08:46:54.813Z,103024.44
2023-02-11T08:47:57.477Z,103024.44
2023-02-11T08:49:01.417Z,103026.28
2023-02-11T08:50:06.247Z,103025.31
2023-02-11T08:51:09.867Z,103022.66
2023-02-11T08:52:12.799Z,103018.25
2023-02-11T08:53:14.346Z,103022.50
2023-02-11T08:54:17.074Z,103018.94
2023-02-11T08:55:18.636Z,103016.28
2023-02-11T08:56:23.340Z,103015.28
2023-02-11T08:57:24.935Z,103023.16
2023-02-11T08:58:27.541Z,103017.88
2023-02-11T08:59:29.776Z,103023.13
2023-02-11T09:00:33.543Z,103033.63
2023-02-11T09:01:46.973Z,103032.72
2023-02-11T09:02:51.186Z,103053.84
2023-02-11T09:03:52.873Z,103038.81
2023-02-11T09:04:55.511Z,103036.16
2023-02-11T09:05:58.436Z,103041.38
2023-02-11T09:07:00.951Z,103036.03
2023-02-11T09:08:02.538Z,103039.47
2023-02-11T09:09:05.565Z,103039.47
2023-02-11T09:10:08.869Z,103045.53
2023-02-11T09:11:11.137Z,103039.31
2023-02-11T09:12:13.640Z,103039.28
2023-02-11T09:13:16.360Z,103042.75
2023-02-11T09:14:21.666Z,103042.75
2023-02-11T09:15:24.145Z,103049.75
2023-02-11T09:16:29.007Z,103050.56
2023-02-11T09:17:34.176Z,103043.50
2023-02-11T09:18:35.775Z,103039.94
2023-02-11T09:19:38.287Z,103046.94
2023-02-11T09:20:39.917Z,103054.00
2023-02-11T09:21:43.797Z,103046.94
2023-02-11T09:22:45.334Z,103057.53
2023-02-11T09:23:48.482Z,103061.91
2023-02-11T09:24:50.969Z,103054.84
2023-02-11T09:25:52.725Z,103055.75
2023-02-11T09:26:56.239Z,103061.03
2023-02-11T09:27:58.365Z,103055.72
2023-02-11T09:29:02.205Z,103060.03
2023-02-11T09:30:05.350Z,103056.47
2023-02-11T09:31:07.484Z,103060.78
2023-02-11T09:32:10.201Z,103059.03
2023-02-11T09:33:12.066Z,103066.94
2023-02-11T09:34:15.766Z,103065.97
2023-02-11T09:35:17.447Z,103063.31
2023-02-11T09:36:21.604Z,103059.78
2023-02-11T09:37:25.581Z,103060.69
2023-02-11T09:38:27.171Z,103060.69
2023-02-11T09:39:29.918Z,103069.41
2023-02-11T09:40:31.460Z,103062.34
2023-02-11T09:41:43.192Z,103058.78
2023-02-11T09:42:50.307Z,103054.31
2023-02-11T09:43:54.180Z,103057.81
2023-02-11T09:44:57.691Z,103058.63
2023-02-11T09:46:01.159Z,103061.22
2023-02-11T09:47:24.977Z,103055.03
2023-02-11T09:48:41.298Z,103062.84
2023-02-11T09:49:50.076Z,103066.28
2023-02-11T09:50:55.844Z,103062.75
2023-02-11T09:52:03.426Z,103062.75
2023-02-11T09:53:12.633Z,103062.75
2023-02-11T09:54:19.740Z,103061.88
2023-02-11T09:55:25.939Z,103068.03
2023-02-11T09:56:28.418Z,103076.84
2023-02-11T09:57:34.263Z,103069.69
2023-02-11T09:58:40.222Z,103065.28
2023-02-11T09:59:41.757Z,103078.50
2023-02-11T10:00:48.195Z,103077.53
2023-02-11T10:01:53.375Z,103073.97
2023-02-11T10:03:21.034Z,103087.22
2023-02-11T10:04:46.386Z,103089.84
2023-02-11T10:06:09.035Z,103094.31
2023-02-11T10:07:21.990Z,103099.59
2023-02-11T10:08:33.278Z,103100.47
2023-02-11T10:09:47.662Z,103094.28
2023-02-11T10:10:52.843Z,103104.81
2023-02-11T10:12:04.477Z,103099.56
2023-02-11T10:13:28.415Z,103094.28
2023-02-11T10:14:51.589Z,103092.59
2023-02-11T10:16:05.212Z,103097.91
2023-02-11T10:17:14.808Z,103100.53
2023-02-11T10:18:41.411Z,103096.13
2023-02-11T10:19:57.480Z,103098.78
2023-02-11T10:21:12.481Z,103103.13
2023-02-11T10:22:29.475Z,103108.53
2023-02-11T10:23:48.967Z,103096.22
2023-02-11T10:24:58.262Z,103098.88
2023-02-11T10:26:00.644Z,103106.81
2023-02-11T10:27:07.589Z,103104.97
2023-02-11T10:28:15.123Z,103097.06
2023-02-11T10:29:35.004Z,103097.94
2023-02-11T10:30:41.899Z,103097.94
2023-02-11T10:31:46.207Z,103099.69
2023-02-11T10:32:53.116Z,103099.69
2023-02-11T10:34:00.946Z,103094.31
2023-02-11T10:35:17.796Z,103102.25
2023-02-11T10:36:23.862Z,103101.41
2023-02-11T10:37:25.496Z,103086.38
2023-02-11T10:38:28.957Z,103099.56
2023-02-11T10:39:33.738Z,103103.00
2023-02-11T10:40:35.340Z,103096.81
2023-02-11T10:41:42.523Z,103103.78
2023-02-11T10:42:48.830Z,103100.25
2023-02-11T10:47:06.301Z,103099.34
2023-02-11T10:48:40.042Z,103104.66
2023-02-11T10:49:43.168Z,103099.34
2023-02-11T10:50:46.018Z,103102.84
2023-02-11T10:52:12.101Z,103101.88
2023-02-11T10:53:24.218Z,103108.00
2023-02-11T10:54:28.111Z,103102.63
2023-02-11T10:55:32.996Z,103103.47
2023-02-11T10:56:36.428Z,103099.97
2023-02-11T10:57:44.506Z,103107.78
2023-02-11T10:58:56.549Z,103102.50
2023-02-11T11:00:00.527Z,103097.22
2023-02-11T11:01:23.938Z,103099.78
2023-02-11T11:02:32.129Z,103103.28
2023-02-11T11:03:38.931Z,103092.72
2023-02-11T11:04:44.917Z,103105.84
2023-02-11T11:05:48.415Z,103103.19
2023-02-11T11:07:14.475Z,103098.72
2023-02-11T11:08:18.414Z,103103.94
2023-02-11T11:09:28.965Z,103105.72
2023-02-11T11:10:44.273Z,103108.38
2023-02-11T11:11:52.554Z,103112.69
2023-02-11T11:12:55.108Z,103106.56
2023-02-11T11:14:00.151Z,103111.78
2023-02-11T11:15:13.624Z,103114.38
2023-02-11T11:16:23.081Z,103108.25
2023-02-11T11:17:28.890Z,103108.22
2023-02-11T11:18:31.467Z,103111.75
2023-02-11T11:19:36.648Z,103110.00
2023-02-11T11:20:53.744Z,103115.25
2023-02-11T11:22:06.278Z,103112.59
2023-02-11T11:23:18.576Z,103108.22
2023-02-11T11:24:26.823Z,103114.38
2023-02-11T11:25:30.470Z,103117.03
2023-02-11T11:26:43.339Z,103120.53
2023-02-11T11:27:49.136Z,103114.38
2023-02-11T11:29:01.307Z,103117.94
2023-02-11T11:30:03.308Z,103115.28
2023-02-11T11:31:13.089Z,103115.25
2023-02-11T11:32:21.597Z,103115.25
2023-02-11T11:33:26.562Z,103106.44
2023-02-11T11:34:32.650Z,103107.34
2023-02-11T11:35:34.243Z,103112.59
2023-02-11T11:36:39.494Z,103109.09
2023-02-11T11:37:41.922Z,103114.38
2023-02-11T11:38:58.348Z,103113.44
2023-02-11T11:40:07.754Z,103117.84
2023-02-11T11:41:26.850Z,103110.78
2023-02-11T11:42:33.289Z,103113.44
2023-02-11T11:43:37.464Z,103112.59
2023-02-11T11:44:40.684Z,103116.09
2023-02-11T11:45:54.428Z,103112.59
2023-02-11T11:47:16.554Z,103112.53
2023-02-11T11:48:23.364Z,103111.66
2023-02-11T11:49:30.077Z,103108.09
2023-02-11T11:50:36.432Z,103110.69
2023-02-11T11:51:43.138Z,103111.50
2023-02-11T11:52:50.720Z,103107.97
2023-02-11T11:57:21.262Z,103109.84
2023-02-11T11:58:25.257Z,103103.72
2023-02-11T11:59:29.586Z,103101.06
2023-02-11T12:00:38.608Z,103101.03
2023-02-11T12:01:56.688Z,103107.13
2023-02-11T12:03:36.910Z,103095.63
2023-02-11T12:04:50.084Z,103105.31
2023-02-11T12:06:08.974Z,103107.00
2023-02-11T12:07:21.333Z,103106.16
2023-02-11T12:08:38.767Z,103099.94
2023-02-11T12:09:51.440Z,103103.38
2023-02-11T12:11:04.744Z,103096.28
2023-02-11T12:12:33.040Z,103100.66
2023-02-11T12:13:56.352Z,103096.19
2023-02-11T12:15:12.362Z,103092.63
2023-02-11T12:16:26.006Z,103099.66
2023-02-11T12:17:44.313Z,103096.09
2023-02-11T12:19:14.996Z,103097.81
2023-02-11T12:20:24.521Z,103097.81
2023-02-11T12:21:38.339Z,103099.56
2023-02-11T12:22:54.377Z,103098.69
2023-02-11T12:24:29.506Z,103100.44
2023-02-11T12:25:38.866Z,103100.44
2023-02-11T12:26:49.488Z,103102.25
2023-02-11T12:28:01.350Z,103099.59
2023-02-11T12:29:13.820Z,103097.81
2023-02-11T12:30:28.741Z,103100.44
2023-02-11T12:31:47.094Z,103095.13
2023-02-11T12:32:58.678Z,103094.19
2023-02-11T12:34:12.979Z,103088.06
2023-02-11T12:35:26.483Z,103094.16
2023-02-11T12:36:45.675Z,103090.59
2023-02-11T12:38:11.588Z,103090.47
2023-02-11T12:39:27.027Z,103087.72
2023-02-11T12:40:39.557Z,103084.06
2023-02-11T12:42:18.929Z,103089.31
2023-02-11T12:43:24.088Z,103091.09
2023-02-11T12:44:39.030Z,103088.38
2023-02-11T12:45:54.907Z,103085.81
2023-02-11T12:47:07.209Z,103084.06
2023-02-11T12:48:25.397Z,103084.94
2023-02-11T12:49:53.355Z,103087.59
2023-02-11T12:51:00.092Z,103084.03
2023-02-11T12:52:15.425Z,103088.38
2023-02-11T12:53:39.724Z,103091.84
2023-02-11T12:54:58.136Z,103080.41
2023-02-11T12:56:05.573Z,103087.41
2023-02-11T12:57:14.604Z,103085.63